Time;durP1;ratioP1;P1;durP2;ratioP2;P2;SDS_P1;SDS_P2;PMS_P1;PMS_P2;Temp;Humidity;BMP_temperature;BMP_pressure;BME280_temperature;BME280_humidity;BME280_pressure;Samples;Min_cycle;Max_cycle;Signal;HPM_P1;HPM_P2
2023/08/09 00:02:16;;;;;;;;;;;16.90;94.80;;;;;;5091546;28;19916;-66
2023/08/09 00:04:42;;;;;;;;;;;16.90;94.90;;;;;;5097836;28;20345;-66
2023/08/09 00:07:07;;;;;;;;;;;16.90;94.80;;;;;;5070629;28;19962;-66
2023/08/09 00:09:33;;;;;;;;;;;16.90;94.90;;;;;;5089088;28;19912;-66
2023/08/09 00:11:58;;;;;;;;;;;16.90;94.90;;;;;;5100769;28;19919;-66
2023/08/09 00:14:24;;;;;;;;;;;16.90;94.90;;;;;;5070526;28;19958;-66
2023/08/09 00:16:49;;;;;;;;;;;16.90;94.90;;;;;;5088475;28;20027;-66
2023/08/09 00:19:15;;;;;;;;;;;16.90;94.90;;;;;;5089061;28;19912;-66
2023/08/09 00:21:40;;;;;;;;;;;16.80;95.00;;;;;;5070480;28;19919;-66
2023/08/09 00:24:06;;;;;;;;;;;16.80;95.00;;;;;;5097879;28;19927;-66
2023/08/09 00:26:31;;;;;;;;;;;16.80;94.90;;;;;;5095179;28;19920;-66
2023/08/09 00:28:57;;;;;;;;;;;16.80;95.00;;;;;;5109257;28;19918;-66
2023/08/09 00:31:23;;;;;;;;;;;16.90;95.00;;;;;;5108790;28;19918;-66
2023/08/09 00:33:48;;;;;;;;;;;16.80;95.00;;;;;;5104429;28;19912;-66
2023/08/09 00:36:15;;;;;;;;;;;16.90;95.10;;;;;;5088323;28;19965;-66
2023/08/09 00:38:41;;;;;;;;;;;16.80;95.00;;;;;;5070046;28;20390;-66
2023/08/09 00:41:07;;;;;;;;;;;16.80;95.10;;;;;;5090066;28;19920;-66
2023/08/09 00:43:32;;;;;;;;;;;16.80;95.10;;;;;;5088473;28;19908;-66
2023/08/09 00:45:58;;;;;;;;;;;16.80;95.10;;;;;;5087874;28;19923;-66
2023/08/09 00:48:24;;;;;;;;;;;16.80;95.10;;;;;;5088002;28;19985;-66
2023/08/09 00:50:49;;;;;;;;;;;16.80;95.10;;;;;;5088362;28;20353;-65
2023/08/09 00:53:15;;;;;;;;;;;16.70;95.00;;;;;;5095342;28;19915;-66
2023/08/09 00:55:41;;;;;;;;;;;16.70;95.10;;;;;;5089467;28;19947;-66
2023/08/09 00:58:07;;;;;;;;;;;16.80;95.20;;;;;;5088047;28;20536;-66
2023/08/09 01:00:32;;;;;;;;;;;16.70;95.20;;;;;;5088022;28;19912;-66
2023/08/09 01:02:58;;;;;;;;;;;16.80;95.30;;;;;;5088164;28;20268;-66
2023/08/09 01:05:26;;;;;;;;;;;16.70;95.20;;;;;;5087350;28;19912;-66
2023/08/09 01:07:58;;;;;;;;;;;16.70;95.20;;;;;;5090840;28;19963;-66
2023/08/09 01:10:34;;;;;;;;;;;16.70;95.20;;;;;;5107775;28;19911;-66
2023/08/09 01:13:03;;;;;;;;;;;16.70;95.20;;;;;;5090042;28;19911;-66
2023/08/09 01:15:30;;;;;;;;;;;16.70;95.20;;;;;;5107823;28;19920;-66
2023/08/09 01:17:57;;;;;;;;;;;16.70;95.30;;;;;;5101649;28;20039;-66
2023/08/09 01:20:24;;;;;;;;;;;16.60;95.20;;;;;;5067705;28;20392;-66
2023/08/09 01:22:57;;;;;;;;;;;16.60;95.20;;;;;;5091615;28;19923;-66
2023/08/09 01:25:22;;;;;;;;;;;16.60;95.30;;;;;;5091570;28;19927;-66
2023/08/09 01:27:48;;;;;;;;;;;16.60;95.30;;;;;;5087981;28;19912;-65
2023/08/09 01:30:14;;;;;;;;;;;16.60;95.30;;;;;;5087937;28;20606;-66
2023/08/09 01:32:39;;;;;;;;;;;16.60;95.30;;;;;;5087572;28;19912;-66
2023/08/09 01:35:05;;;;;;;;;;;16.60;95.30;;;;;;5087742;28;19992;-66
2023/08/09 01:37:34;;;;;;;;;;;16.60;95.30;;;;;;5069594;28;19920;-66
2023/08/09 01:40:03;;;;;;;;;;;16.60;95.60;;;;;;5087747;28;19919;-66
2023/08/09 01:42:29;;;;;;;;;;;16.60;95.30;;;;;;5087936;28;20376;-66
2023/08/09 01:44:55;;;;;;;;;;;16.60;95.30;;;;;;5087267;28;19908;-66
2023/08/09 01:47:20;;;;;;;;;;;16.50;95.30;;;;;;5087405;28;19912;-66
2023/08/09 01:49:47;;;;;;;;;;;16.50;95.30;;;;;;5088687;28;19923;-66
2023/08/09 01:52:13;;;;;;;;;;;16.50;95.30;;;;;;5087720;28;20364;-66
2023/08/09 01:54:39;;;;;;;;;;;16.60;95.40;;;;;;5078308;28;20007;-66
2023/08/09 01:57:04;;;;;;;;;;;16.60;95.40;;;;;;5068385;28;20413;-66
2023/08/09 01:59:30;;;;;;;;;;;16.50;95.40;;;;;;5088134;28;20627;-66
2023/08/09 02:01:55;;;;;;;;;;;16.60;95.40;;;;;;5090949;28;19919;-66
2023/08/09 02:04:21;;;;;;;;;;;16.50;95.40;;;;;;5102950;28;19918;-66
2023/08/09 02:06:46;;;;;;;;;;;16.50;95.30;;;;;;5090783;28;19976;-66
2023/08/09 02:09:12;;;;;;;;;;;16.50;95.40;;;;;;5091361;28;20003;-66
2023/08/09 02:11:37;;;;;;;;;;;16.50;95.40;;;;;;5073064;28;20345;-66
2023/08/09 02:14:03;;;;;;;;;;;16.50;95.40;;;;;;5087168;28;19912;-66
2023/08/09 02:16:29;;;;;;;;;;;16.50;95.40;;;;;;5080169;28;20012;-66
2023/08/09 02:18:54;;;;;;;;;;;16.40;95.50;;;;;;5092655;28;20424;-66
2023/08/09 02:21:21;;;;;;;;;;;16.50;95.50;;;;;;5090579;28;19916;-66
2023/08/09 02:23:47;;;;;;;;;;;16.50;95.40;;;;;;5099752;28;19919;-66
2023/08/09 02:26:13;;;;;;;;;;;16.50;95.50;;;;;;5090661;28;19912;-66
2023/08/09 02:28:39;;;;;;;;;;;16.40;95.50;;;;;;5090436;28;19908;-66
2023/08/09 02:31:05;;;;;;;;;;;16.50;95.50;;;;;;5100748;28;19916;-66
2023/08/09 02:33:31;;;;;;;;;;;16.40;95.50;;;;;;5080339;28;19916;-66
2023/08/09 02:35:59;;;;;;;;;;;16.40;95.40;;;;;;5091456;28;19912;-66
2023/08/09 02:38:25;;;;;;;;;;;16.40;95.50;;;;;;5071943;28;19965;-66
2023/08/09 02:40:51;;;;;;;;;;;16.40;95.50;;;;;;5090509;28;20753;-66
2023/08/09 02:43:17;;;;;;;;;;;16.40;95.50;;;;;;5090312;28;19919;-66
2023/08/09 02:45:43;;;;;;;;;;;16.40;95.50;;;;;;5089775;28;20467;-66
2023/08/09 02:48:09;;;;;;;;;;;16.40;95.50;;;;;;5090401;28;19916;-66
2023/08/09 02:50:35;;;;;;;;;;;16.40;95.60;;;;;;5090280;28;19915;-66
2023/08/09 02:53:03;;;;;;;;;;;16.30;95.60;;;;;;5095551;28;19912;-66
2023/08/09 02:55:29;;;;;;;;;;;16.30;95.60;;;;;;5089638;28;19913;-66
2023/08/09 02:57:55;;;;;;;;;;;16.30;95.60;;;;;;5085506;28;19973;-66
2023/08/09 03:00:20;;;;;;;;;;;16.30;95.60;;;;;;5084930;28;20693;-66
2023/08/09 03:02:46;;;;;;;;;;;16.30;95.60;;;;;;5087050;28;19916;-66
2023/08/09 03:05:11;;;;;;;;;;;16.30;95.60;;;;;;5090063;28;19912;-66
2023/08/09 03:07:37;;;;;;;;;;;16.30;95.70;;;;;;5071104;28;19946;-66
2023/08/09 03:10:03;;;;;;;;;;;16.30;95.70;;;;;;5085875;28;19961;-66
2023/08/09 03:12:29;;;;;;;;;;;16.30;95.70;;;;;;5070963;28;19946;-66
2023/08/09 03:14:55;;;;;;;;;;;16.20;95.70;;;;;;5099520;28;20349;-66
2023/08/09 03:17:20;;;;;;;;;;;16.20;95.70;;;;;;5109780;28;19938;-66
2023/08/09 03:19:46;;;;;;;;;;;16.20;95.70;;;;;;5072431;28;20322;-66
2023/08/09 03:22:11;;;;;;;;;;;16.20;96.00;;;;;;5070679;28;19958;-66
2023/08/09 03:24:38;;;;;;;;;;;16.10;95.70;;;;;;5098232;28;19942;-66
2023/08/09 03:27:03;;;;;;;;;;;16.20;95.80;;;;;;5088993;28;19916;-66
2023/08/09 03:29:29;;;;;;;;;;;16.20;95.80;;;;;;5086533;28;19911;-66
2023/08/09 03:31:54;;;;;;;;;;;16.10;95.80;;;;;;5109625;28;19911;-66
2023/08/09 03:34:20;;;;;;;;;;;16.10;95.80;;;;;;5100824;28;19916;-66
2023/08/09 03:36:45;;;;;;;;;;;16.10;95.70;;;;;;5089073;28;19912;-66
2023/08/09 03:39:11;;;;;;;;;;;16.10;95.80;;;;;;5089279;28;19950;-66
2023/08/09 03:41:36;;;;;;;;;;;16.10;95.80;;;;;;5088896;28;19916;-66
2023/08/09 03:44:02;;;;;;;;;;;16.10;95.80;;;;;;5070995;28;19909;-66
2023/08/09 03:46:28;;;;;;;;;;;16.10;95.80;;;;;;5088708;28;19923;-66
2023/08/09 03:48:54;;;;;;;;;;;16.10;95.80;;;;;;5088999;28;20315;-66
2023/08/09 03:51:19;;;;;;;;;;;16.10;95.80;;;;;;5088407;28;19916;-66
2023/08/09 03:53:45;;;;;;;;;;;16.10;95.90;;;;;;5097259;28;19919;-66
2023/08/09 03:56:11;;;;;;;;;;;16.10;95.90;;;;;;5089196;28;19923;-66
2023/08/09 03:58:37;;;;;;;;;;;16.10;95.90;;;;;;5087569;28;20049;-66
2023/08/09 04:01:02;;;;;;;;;;;16.10;95.90;;;;;;5088848;28;20003;-66
2023/08/09 04:03:28;;;;;;;;;;;16.10;95.90;;;;;;5088779;28;19912;-66
2023/08/09 04:05:54;;;;;;;;;;;16.10;95.90;;;;;;5088320;28;19912;-66
2023/08/09 04:08:21;;;;;;;;;;;16.10;95.80;;;;;;5088656;28;19923;-66
2023/08/09 04:10:47;;;;;;;;;;;16.10;95.90;;;;;;5099214;28;19920;-66
2023/08/09 04:13:13;;;;;;;;;;;16.10;95.90;;;;;;5109186;28;19915;-66
2023/08/09 04:15:38;;;;;;;;;;;16.10;95.90;;;;;;5099962;28;19908;-66
2023/08/09 04:18:04;;;;;;;;;;;16.10;95.90;;;;;;5089081;28;20010;-66
2023/08/09 04:20:31;;;;;;;;;;;16.00;95.90;;;;;;5088786;28;20061;-66
2023/08/09 04:22:57;;;;;;;;;;;16.00;95.90;;;;;;5093885;28;19919;-69
2023/08/09 04:25:23;;;;;;;;;;;16.10;96.00;;;;;;5075841;28;19920;-69
2023/08/09 04:27:48;;;;;;;;;;;16.10;96.00;;;;;;5068616;28;19951;-69
2023/08/09 04:30:14;;;;;;;;;;;16.00;96.00;;;;;;5068710;28;19908;-69
2023/08/09 04:32:39;;;;;;;;;;;16.10;96.00;;;;;;5068565;28;19913;-69
2023/08/09 04:35:05;;;;;;;;;;;16.10;95.90;;;;;;5065677;28;19915;-69
2023/08/09 04:37:31;;;;;;;;;;;16.10;96.00;;;;;;5089089;28;19915;-69
2023/08/09 04:39:57;;;;;;;;;;;16.10;95.90;;;;;;5088237;28;20554;-69
2023/08/09 04:42:22;;;;;;;;;;;16.00;95.90;;;;;;5088465;28;19916;-69
2023/08/09 04:44:48;;;;;;;;;;;16.00;95.90;;;;;;5087975;28;19915;-69
2023/08/09 04:47:14;;;;;;;;;;;16.00;95.90;;;;;;5088057;28;19927;-69
2023/08/09 04:49:40;;;;;;;;;;;16.00;96.00;;;;;;5088482;28;19912;-69
2023/08/09 04:52:06;;;;;;;;;;;16.10;95.90;;;;;;5094755;28;19916;-69
2023/08/09 04:54:31;;;;;;;;;;;16.10;96.00;;;;;;5099514;28;20246;-69
2023/08/09 04:56:57;;;;;;;;;;;16.00;96.00;;;;;;5087536;28;19920;-69
2023/08/09 04:59:23;;;;;;;;;;;16.10;96.00;;;;;;5088080;28;19912;-69
2023/08/09 05:01:49;;;;;;;;;;;16.10;96.00;;;;;;5087901;28;19912;-69
2023/08/09 05:04:14;;;;;;;;;;;16.10;96.00;;;;;;5087996;28;19915;-69
2023/08/09 05:06:40;;;;;;;;;;;16.10;96.00;;;;;;5087975;28;19943;-69
2023/08/09 05:09:05;;;;;;;;;;;16.10;96.00;;;;;;5070120;28;20646;-70
2023/08/09 05:11:31;;;;;;;;;;;16.00;96.00;;;;;;5088062;28;19949;-69
2023/08/09 05:13:57;;;;;;;;;;;16.00;95.90;;;;;;5088174;28;19919;-69
2023/08/09 05:16:24;;;;;;;;;;;16.00;95.90;;;;;;5087495;28;20334;-69
2023/08/09 05:18:51;;;;;;;;;;;16.10;96.00;;;;;;5088203;28;19939;-69
2023/08/09 05:21:16;;;;;;;;;;;16.00;95.90;;;;;;5088767;28;20011;-69
2023/08/09 05:23:42;;;;;;;;;;;16.00;96.00;;;;;;5080631;28;20643;-70
2023/08/09 05:26:07;;;;;;;;;;;16.10;96.00;;;;;;5107773;28;19926;-69
2023/08/09 05:28:33;;;;;;;;;;;16.10;96.00;;;;;;5107750;28;19918;-69
2023/08/09 05:30:58;;;;;;;;;;;16.10;95.90;;;;;;5101003;28;19912;-69
2023/08/09 05:33:24;;;;;;;;;;;16.10;95.90;;;;;;5087578;28;19912;-69
2023/08/09 05:35:49;;;;;;;;;;;16.10;95.90;;;;;;5072266;28;20015;-70
2023/08/09 05:38:15;;;;;;;;;;;16.10;95.90;;;;;;5092037;28;19916;-69
2023/08/09 05:40:40;;;;;;;;;;;16.10;95.90;;;;;;5091213;28;19945;-69
2023/08/09 05:43:06;;;;;;;;;;;16.10;95.90;;;;;;5091174;28;19916;-69
2023/08/09 05:45:32;;;;;;;;;;;16.10;96.00;;;;;;5091057;28;20018;-69
2023/08/09 05:47:57;;;;;;;;;;;16.10;95.90;;;;;;5098037;28;19909;-70
2023/08/09 05:50:23;;;;;;;;;;;16.10;95.90;;;;;;5087095;28;19916;-69
2023/08/09 05:52:48;;;;;;;;;;;16.10;95.90;;;;;;5059910;28;19914;-69
2023/08/09 05:55:14;;;;;;;;;;;16.10;95.90;;;;;;5095078;28;19946;-69
2023/08/09 05:57:39;;;;;;;;;;;16.10;95.90;;;;;;5073182;28;19986;-69
2023/08/09 06:00:06;;;;;;;;;;;16.10;95.90;;;;;;5091729;28;19912;-69
2023/08/09 06:02:34;;;;;;;;;;;16.20;95.90;;;;;;5108996;28;19954;-70
2023/08/09 06:05:00;;;;;;;;;;;16.10;95.90;;;;;;5112170;28;19911;-69
2023/08/09 06:07:26;;;;;;;;;;;16.20;95.90;;;;;;5095675;28;20703;-68
2023/08/09 06:09:51;;;;;;;;;;;16.20;95.80;;;;;;5110817;28;19938;-69
2023/08/09 06:12:17;;;;;;;;;;;16.20;95.90;;;;;;5092705;28;19919;-69
2023/08/09 06:14:42;;;;;;;;;;;16.20;95.90;;;;;;5093243;28;19915;-69
2023/08/09 06:17:08;;;;;;;;;;;16.20;95.80;;;;;;5109373;28;19939;-69
2023/08/09 06:19:33;;;;;;;;;;;16.30;95.90;;;;;;5090704;28;19920;-69
2023/08/09 06:21:59;;;;;;;;;;;16.20;95.80;;;;;;5090710;28;20323;-69
2023/08/09 06:24:24;;;;;;;;;;;16.20;95.90;;;;;;5093464;28;19939;-69
2023/08/09 06:26:50;;;;;;;;;;;16.20;95.80;;;;;;5071950;28;19915;-69
2023/08/09 06:29:16;;;;;;;;;;;16.30;95.80;;;;;;5072308;28;19950;-69
2023/08/09 06:31:42;;;;;;;;;;;16.30;95.80;;;;;;5090370;28;19912;-69
2023/08/09 06:34:08;;;;;;;;;;;16.30;95.80;;;;;;5091617;28;19924;-69
2023/08/09 06:36:34;;;;;;;;;;;16.30;95.80;;;;;;5089826;28;20345;-69
2023/08/09 06:38:59;;;;;;;;;;;16.30;95.80;;;;;;5090559;28;19931;-69
2023/08/09 06:41:25;;;;;;;;;;;16.30;95.80;;;;;;5089535;28;19981;-69
2023/08/09 06:43:51;;;;;;;;;;;16.40;95.70;;;;;;5089913;28;20071;-69
2023/08/09 06:46:16;;;;;;;;;;;16.40;95.80;;;;;;5088906;28;19962;-69
2023/08/09 06:48:41;;;;;;;;;;;16.40;95.70;;;;;;5089783;28;19962;-69
2023/08/09 06:51:07;;;;;;;;;;;16.40;95.70;;;;;;5096736;28;20424;-69
2023/08/09 06:53:32;;;;;;;;;;;16.40;95.70;;;;;;5091786;28;19915;-69
2023/08/09 06:55:58;;;;;;;;;;;16.50;95.60;;;;;;5072011;28;20029;-69
2023/08/09 06:58:24;;;;;;;;;;;16.50;95.60;;;;;;5072259;28;19912;-69
2023/08/09 07:00:49;;;;;;;;;;;16.50;95.60;;;;;;5071878;28;19916;-69
2023/08/09 07:03:15;;;;;;;;;;;16.50;95.60;;;;;;5090514;28;20011;-69
2023/08/09 07:05:41;;;;;;;;;;;16.60;95.60;;;;;;5089847;28;19962;-69
2023/08/09 07:08:06;;;;;;;;;;;16.60;95.50;;;;;;5102240;28;20492;-70
2023/08/09 07:10:32;;;;;;;;;;;16.60;95.50;;;;;;5110282;28;19995;-69
2023/08/09 07:12:58;;;;;;;;;;;16.70;95.40;;;;;;5110925;28;19998;-70
2023/08/09 07:15:23;;;;;;;;;;;16.70;95.50;;;;;;5110092;28;20006;-69
2023/08/09 07:17:49;;;;;;;;;;;16.70;95.50;;;;;;5105640;28;19916;-69
2023/08/09 07:20:14;;;;;;;;;;;16.70;95.50;;;;;;5069656;28;19913;-70
2023/08/09 07:22:40;;;;;;;;;;;16.70;95.40;;;;;;5073606;28;19917;-69
2023/08/09 07:25:07;;;;;;;;;;;16.70;95.40;;;;;;5084144;28;20686;-69
2023/08/09 07:27:33;;;;;;;;;;;16.70;95.40;;;;;;5089723;28;19938;-70
2023/08/09 07:29:59;;;;;;;;;;;16.70;95.40;;;;;;5092293;28;20503;-70
2023/08/09 07:32:25;;;;;;;;;;;16.70;95.40;;;;;;5110069;28;19914;-69
2023/08/09 07:34:50;;;;;;;;;;;16.70;95.40;;;;;;5078984;28;19919;-69
2023/08/09 07:37:16;;;;;;;;;;;16.70;95.40;;;;;;5104415;28;20371;-70
2023/08/09 07:39:41;;;;;;;;;;;16.70;95.40;;;;;;5109743;28;19922;-71
2023/08/09 07:42:07;;;;;;;;;;;16.80;95.40;;;;;;5110659;28;19914;-71
2023/08/09 07:44:32;;;;;;;;;;;16.80;95.40;;;;;;5110787;28;20318;-70
2023/08/09 07:46:58;;;;;;;;;;;16.80;95.60;;;;;;5109784;28;19915;-71
2023/08/09 07:49:25;;;;;;;;;;;16.80;95.30;;;;;;5079092;28;19915;-71
2023/08/09 07:51:50;;;;;;;;;;;16.80;95.30;;;;;;5074438;28;19916;-70
2023/08/09 07:54:16;;;;;;;;;;;16.90;95.20;;;;;;5089431;28;19912;-70
2023/08/09 07:56:41;;;;;;;;;;;16.90;95.20;;;;;;5070254;28;19938;-68
2023/08/09 07:59:07;;;;;;;;;;;16.90;95.20;;;;;;5088711;28;19918;-68
2023/08/09 08:01:32;;;;;;;;;;;16.90;95.20;;;;;;5089662;28;19908;-71
2023/08/09 08:03:58;;;;;;;;;;;16.90;95.00;;;;;;5090418;28;19947;-70
2023/08/09 08:06:23;;;;;;;;;;;17.00;95.10;;;;;;5089618;28;19912;-70
2023/08/09 08:08:49;;;;;;;;;;;17.00;95.00;;;;;;5089821;28;19919;-70
2023/08/09 08:11:15;;;;;;;;;;;17.10;94.90;;;;;;5089505;28;19912;-70
2023/08/09 08:13:40;;;;;;;;;;;17.10;94.90;;;;;;5088856;28;20336;-71
2023/08/09 08:16:06;;;;;;;;;;;17.20;94.90;;;;;;5076136;28;19917;-72
2023/08/09 08:18:31;;;;;;;;;;;17.20;94.80;;;;;;5088006;28;20257;-71
2023/08/09 08:20:57;;;;;;;;;;;17.20;94.70;;;;;;5089705;28;19908;-71
2023/08/09 08:23:23;;;;;;;;;;;17.30;94.80;;;;;;5092799;28;19908;-70
2023/08/09 08:25:49;;;;;;;;;;;17.30;94.80;;;;;;5069512;28;19927;-70
2023/08/09 08:28:15;;;;;;;;;;;17.20;94.80;;;;;;5050620;28;20384;-71
2023/08/09 08:30:40;;;;;;;;;;;17.20;94.90;;;;;;5105296;28;19919;-71
2023/08/09 08:33:08;;;;;;;;;;;17.20;94.90;;;;;;5109365;28;19919;-71
2023/08/09 08:35:36;;;;;;;;;;;17.30;94.90;;;;;;5071855;28;19912;-70
2023/08/09 08:38:02;;;;;;;;;;;17.30;94.80;;;;;;5068752;28;20017;-70
2023/08/09 08:40:31;;;;;;;;;;;17.40;94.70;;;;;;5070305;28;19918;-70
2023/08/09 08:42:57;;;;;;;;;;;17.50;94.60;;;;;;5088862;28;19912;-71
2023/08/09 08:45:22;;;;;;;;;;;17.50;94.50;;;;;;5088740;28;19924;-71
2023/08/09 08:47:48;;;;;;;;;;;17.60;94.40;;;;;;5088947;28;19912;-72
2023/08/09 08:50:14;;;;;;;;;;;17.60;94.30;;;;;;5070729;28;19960;-71
2023/08/09 08:52:42;;;;;;;;;;;17.60;94.30;;;;;;5086693;28;19976;-71
2023/08/09 08:55:09;;;;;;;;;;;17.70;94.20;;;;;;5080816;28;19962;-71
2023/08/09 08:57:35;;;;;;;;;;;17.80;94.20;;;;;;5088177;28;19919;-72
2023/08/09 09:00:08;;;;;;;;;;;17.80;94.10;;;;;;5088922;28;19912;-72
2023/08/09 09:02:36;;;;;;;;;;;17.80;94.10;;;;;;5096217;28;19915;-71
2023/08/09 09:05:02;;;;;;;;;;;17.80;94.10;;;;;;5094659;28;19986;-70
2023/08/09 09:07:29;;;;;;;;;;;17.80;94.10;;;;;;5072473;28;20003;-71
2023/08/09 09:10:03;;;;;;;;;;;17.90;94.30;;;;;;5069259;28;19932;-71
2023/08/09 09:12:29;;;;;;;;;;;17.90;94.00;;;;;;5088184;28;19912;-71
2023/08/09 09:14:54;;;;;;;;;;;17.90;94.00;;;;;;5088902;28;20334;-71
2023/08/09 09:17:20;;;;;;;;;;;18.00;94.00;;;;;;5088591;28;19916;-70
2023/08/09 09:19:46;;;;;;;;;;;18.00;93.90;;;;;;5065086;28;19947;-70
2023/08/09 09:22:25;;;;;;;;;;;18.00;93.90;;;;;;5108826;28;19969;-70
2023/08/09 09:24:50;;;;;;;;;;;18.00;93.90;;;;;;5097305;28;19981;-71
2023/08/09 09:27:16;;;;;;;;;;;18.00;94.00;;;;;;5068095;28;19922;-71
2023/08/09 09:29:41;;;;;;;;;;;18.00;94.00;;;;;;5068601;28;19912;-71
2023/08/09 09:32:08;;;;;;;;;;;18.00;93.90;;;;;;5049695;28;20004;-71
2023/08/09 09:34:35;;;;;;;;;;;18.10;93.90;;;;;;5078858;28;19913;-71
2023/08/09 09:37:01;;;;;;;;;;;18.10;93.90;;;;;;5082284;28;19958;-70
2023/08/09 09:39:27;;;;;;;;;;;18.10;93.90;;;;;;5070226;28;20303;-71
2023/08/09 09:41:53;;;;;;;;;;;18.20;93.80;;;;;;5087927;28;19912;-70
2023/08/09 09:44:21;;;;;;;;;;;18.30;93.70;;;;;;5088036;28;20425;-70
2023/08/09 09:46:52;;;;;;;;;;;18.30;93.60;;;;;;5092267;28;19917;-70
2023/08/09 09:49:18;;;;;;;;;;;18.30;93.50;;;;;;5087639;28;20627;-70
2023/08/09 09:51:45;;;;;;;;;;;18.40;93.50;;;;;;5098807;28;19926;-70
2023/08/09 09:54:11;;;;;;;;;;;18.50;93.40;;;;;;5095946;28;19916;-70
2023/08/09 09:56:37;;;;;;;;;;;18.50;93.10;;;;;;5087536;28;19923;-70
2023/08/09 09:59:07;;;;;;;;;;;18.50;93.20;;;;;;5102502;28;19943;-70
2023/08/09 10:01:35;;;;;;;;;;;18.50;93.30;;;;;;5088096;28;19991;-70
2023/08/09 10:04:06;;;;;;;;;;;18.60;93.30;;;;;;5088223;28;19989;-70
2023/08/09 10:06:33;;;;;;;;;;;18.50;93.30;;;;;;5087716;28;19961;-70
2023/08/09 10:08:59;;;;;;;;;;;18.60;93.30;;;;;;5088619;28;19927;-71
2023/08/09 10:11:28;;;;;;;;;;;18.60;93.00;;;;;;5088894;28;19981;-69
2023/08/09 10:13:55;;;;;;;;;;;18.70;93.10;;;;;;5070236;28;19915;-71
2023/08/09 10:16:22;;;;;;;;;;;18.70;93.10;;;;;;5088544;28;19955;-71
2023/08/09 10:18:53;;;;;;;;;;;18.70;92.80;;;;;;5088815;28;19957;-71
2023/08/09 10:21:19;;;;;;;;;;;18.70;92.80;;;;;;5090864;28;20063;-71
2023/08/09 10:24:03;;;;;;;;;;;18.70;92.40;;;;;;5069392;28;19912;-71
2023/08/09 10:26:29;;;;;;;;;;;18.70;92.30;;;;;;5112630;28;19912;-71
2023/08/09 10:29:21;;;;;;;;;;;18.70;92.00;;;;;;5109586;28;19908;-71
2023/08/09 10:31:51;;;;;;;;;;;18.80;92.10;;;;;;5106146;28;20391;-71
2023/08/09 10:34:18;;;;;;;;;;;18.90;91.70;;;;;;5104887;28;19988;-71
2023/08/09 10:36:50;;;;;;;;;;;18.90;91.70;;;;;;5092132;28;19912;-71
2023/08/09 10:39:19;;;;;;;;;;;18.90;91.90;;;;;;5092173;28;19912;-71
2023/08/09 10:41:54;;;;;;;;;;;18.90;91.30;;;;;;5092315;28;19912;-71
2023/08/09 10:44:33;;;;;;;;;;;19.00;92.00;;;;;;5092221;28;20330;-71
2023/08/09 10:47:03;;;;;;;;;;;19.10;90.80;;;;;;5091575;28;19919;-71
2023/08/09 10:49:47;;;;;;;;;;;19.10;90.50;;;;;;5095503;28;19912;-71
2023/08/09 10:52:13;;;;;;;;;;;19.10;90.70;;;;;;5091568;28;20572;-71
2023/08/09 10:54:39;;;;;;;;;;;19.20;91.10;;;;;;5090128;28;19917;-71
2023/08/09 10:57:11;;;;;;;;;;;19.20;90.20;;;;;;5090822;28;19908;-71
2023/08/09 10:59:43;;;;;;;;;;;19.20;90.20;;;;;;5091700;28;19919;-71
2023/08/09 11:02:09;;;;;;;;;;;19.30;90.40;;;;;;5091011;28;19916;-71
2023/08/09 11:04:34;;;;;;;;;;;19.30;90.40;;;;;;5097609;28;19912;-70
2023/08/09 11:07:00;;;;;;;;;;;19.40;90.60;;;;;;5098221;28;19923;-70
2023/08/09 11:09:27;;;;;;;;;;;19.40;90.60;;;;;;5090835;28;19912;-70
2023/08/09 11:11:53;;;;;;;;;;;19.50;90.40;;;;;;5090809;28;19994;-71
2023/08/09 11:14:19;;;;;;;;;;;19.50;90.00;;;;;;5072684;28;20011;-71
2023/08/09 11:16:45;;;;;;;;;;;19.50;89.80;;;;;;5071971;28;19943;-70
2023/08/09 11:19:15;;;;;;;;;;;19.60;90.00;;;;;;5090230;28;19916;-70
2023/08/09 11:21:41;;;;;;;;;;;19.60;89.90;;;;;;5091757;28;19920;-71
2023/08/09 11:24:07;;;;;;;;;;;19.70;90.10;;;;;;5081191;28;19916;-71
2023/08/09 11:26:35;;;;;;;;;;;19.70;89.50;;;;;;5090253;28;19912;-70
2023/08/09 11:29:01;;;;;;;;;;;19.70;89.50;;;;;;5090650;28;19912;-70
2023/08/09 11:31:26;;;;;;;;;;;19.80;90.20;;;;;;5089742;28;19919;-71
2023/08/09 11:33:56;;;;;;;;;;;19.90;89.20;;;;;;5089481;28;19912;-70
2023/08/09 11:36:25;;;;;;;;;;;19.90;88.70;;;;;;5090199;28;20367;-70
2023/08/09 11:38:50;;;;;;;;;;;19.90;89.60;;;;;;5110136;28;19920;-71
2023/08/09 11:41:16;;;;;;;;;;;19.90;88.90;;;;;;5092149;28;19912;-73
2023/08/09 11:43:41;;;;;;;;;;;20.00;89.40;;;;;;5110710;28;19918;-71
2023/08/09 11:46:07;;;;;;;;;;;20.00;90.00;;;;;;5098146;28;19926;-69
2023/08/09 11:48:34;;;;;;;;;;;20.00;89.40;;;;;;5089674;28;20284;-70
2023/08/09 11:51:02;;;;;;;;;;;20.10;89.60;;;;;;5089655;28;20289;-69
2023/08/09 11:53:28;;;;;;;;;;;20.10;88.70;;;;;;5078674;28;19964;-69
2023/08/09 11:56:00;;;;;;;;;;;20.10;89.10;;;;;;5088316;28;19912;-69
2023/08/09 11:58:26;;;;;;;;;;;20.20;88.30;;;;;;5089546;28;19996;-69
2023/08/09 12:00:51;;;;;;;;;;;20.20;88.40;;;;;;5082508;28;19940;-69
2023/08/09 12:03:21;;;;;;;;;;;20.20;87.00;;;;;;5088876;28;20613;-70
2023/08/09 12:05:46;;;;;;;;;;;20.20;88.20;;;;;;5088860;28;19916;-70
2023/08/09 12:08:12;;;;;;;;;;;20.30;87.70;;;;;;5089583;28;19919;-70
2023/08/09 12:10:40;;;;;;;;;;;20.30;86.90;;;;;;5072481;28;19912;-69
2023/08/09 12:13:06;;;;;;;;;;;20.30;86.80;;;;;;5089800;28;19912;-71
2023/08/09 12:15:32;;;;;;;;;;;20.40;85.10;;;;;;5088705;28;20414;-70
2023/08/09 12:17:58;;;;;;;;;;;20.40;87.30;;;;;;5089673;28;20273;-70
2023/08/09 12:20:23;;;;;;;;;;;20.40;87.50;;;;;;5071521;28;19914;-69
2023/08/09 12:22:49;;;;;;;;;;;20.40;88.00;;;;;;5092906;28;19912;-69
2023/08/09 12:25:14;;;;;;;;;;;20.50;87.40;;;;;;5095914;28;19927;-69
2023/08/09 12:27:40;;;;;;;;;;;20.50;84.60;;;;;;5094757;28;19916;-70
2023/08/09 12:30:10;;;;;;;;;;;20.60;85.50;;;;;;5071794;28;19950;-69
2023/08/09 12:32:36;;;;;;;;;;;20.60;85.10;;;;;;5089201;28;19999;-70
2023/08/09 12:35:02;;;;;;;;;;;20.60;84.60;;;;;;5089139;28;20026;-69
2023/08/09 12:37:27;;;;;;;;;;;20.60;84.40;;;;;;5088793;28;19999;-69
2023/08/09 12:39:54;;;;;;;;;;;20.60;86.90;;;;;;5089210;28;20494;-69
2023/08/09 12:42:19;;;;;;;;;;;20.60;83.00;;;;;;5073046;28;20381;-70
2023/08/09 12:44:44;;;;;;;;;;;20.70;84.20;;;;;;5109102;28;19912;-69
2023/08/09 12:47:11;;;;;;;;;;;20.60;84.40;;;;;;5106649;28;19916;-69
2023/08/09 12:49:36;;;;;;;;;;;20.60;83.70;;;;;;5088548;28;19916;-70
2023/08/09 12:52:02;;;;;;;;;;;20.60;83.70;;;;;;5094514;28;20545;-69
2023/08/09 12:54:31;;;;;;;;;;;20.70;84.60;;;;;;5096531;28;19935;-69
2023/08/09 12:56:57;;;;;;;;;;;20.70;82.60;;;;;;5068302;28;19966;-69
2023/08/09 12:59:22;;;;;;;;;;;20.70;83.10;;;;;;5096447;28;19986;-69
2023/08/09 13:01:48;;;;;;;;;;;20.70;82.80;;;;;;5096540;28;19923;-70
2023/08/09 13:04:15;;;;;;;;;;;20.70;82.80;;;;;;5068866;28;20264;-69
2023/08/09 13:06:41;;;;;;;;;;;20.70;81.60;;;;;;5087698;28;19965;-70
2023/08/09 13:09:11;;;;;;;;;;;20.70;82.60;;;;;;5085822;28;20308;-69
2023/08/09 13:11:37;;;;;;;;;;;20.70;81.40;;;;;;5088232;28;20697;-69
2023/08/09 13:14:02;;;;;;;;;;;20.70;80.10;;;;;;5087298;28;19912;-69
2023/08/09 13:16:29;;;;;;;;;;;20.80;81.80;;;;;;5088114;28;19916;-69
2023/08/09 13:18:54;;;;;;;;;;;20.80;81.80;;;;;;5083656;28;19916;-70
2023/08/09 13:21:20;;;;;;;;;;;20.80;82.10;;;;;;5087082;28;19923;-69
2023/08/09 13:23:45;;;;;;;;;;;20.80;81.50;;;;;;5087533;28;20023;-70
2023/08/09 13:26:14;;;;;;;;;;;20.80;81.40;;;;;;5068116;28;19920;-69
2023/08/09 13:28:39;;;;;;;;;;;20.90;80.70;;;;;;5087519;28;20140;-69
2023/08/09 13:31:05;;;;;;;;;;;20.90;81.00;;;;;;5085018;28;19916;-69
2023/08/09 13:33:31;;;;;;;;;;;20.90;80.40;;;;;;5088108;28;20588;-69
2023/08/09 13:35:56;;;;;;;;;;;21.00;80.40;;;;;;5087582;28;20344;-69
2023/08/09 13:38:29;;;;;;;;;;;21.10;80.90;;;;;;5088070;28;19912;-70
2023/08/09 13:40:58;;;;;;;;;;;21.10;80.50;;;;;;5088149;28;19933;-70
2023/08/09 13:43:24;;;;;;;;;;;21.10;80.50;;;;;;5088389;28;19954;-69
2023/08/09 13:45:49;;;;;;;;;;;21.00;81.40;;;;;;5083839;28;19919;-70
2023/08/09 13:48:15;;;;;;;;;;;21.10;81.60;;;;;;5084628;28;20334;-70
2023/08/09 13:50:40;;;;;;;;;;;21.10;80.90;;;;;;5085244;28;19951;-69
2023/08/09 13:53:06;;;;;;;;;;;21.10;80.30;;;;;;5088000;28;20026;-70
2023/08/09 13:55:32;;;;;;;;;;;21.10;81.70;;;;;;5086494;28;19912;-70
2023/08/09 13:57:57;;;;;;;;;;;21.30;81.90;;;;;;5092053;28;19914;-70
2023/08/09 14:00:23;;;;;;;;;;;21.40;82.00;;;;;;5090459;28;19912;-69
2023/08/09 14:02:49;;;;;;;;;;;21.50;81.00;;;;;;5090620;28;19969;-70
2023/08/09 14:05:15;;;;;;;;;;;21.50;80.20;;;;;;5095619;28;20002;-70
2023/08/09 14:07:41;;;;;;;;;;;21.60;81.80;;;;;;5088760;28;19922;-70
2023/08/09 14:10:06;;;;;;;;;;;21.70;81.00;;;;;;5072929;28;19912;-69
2023/08/09 14:12:32;;;;;;;;;;;21.70;80.50;;;;;;5070203;28;19958;-70